sensor_id;sensor_type;location;lat;lon;timestamp;temperature;humidity
73780;SHT30;62093;37.614;15.072;2023-02-26T00:01:16;16.29;61.52
73780;SHT30;62093;37.614;15.072;2023-02-26T00:03:43;16.29;61.54
73780;SHT30;62093;37.614;15.072;2023-02-26T00:06:08;16.29;61.57
73780;SHT30;62093;37.614;15.072;2023-02-26T00:08:35;16.29;61.60
73780;SHT30;62093;37.614;15.072;2023-02-26T00:11:01;16.28;61.55
73780;SHT30;62093;37.614;15.072;2023-02-26T00:13:30;16.29;61.63
73780;SHT30;62093;37.614;15.072;2023-02-26T00:15:59;16.28;61.78
73780;SHT30;62093;37.614;15.072;2023-02-26T00:18:26;16.25;61.66
73780;SHT30;62093;37.614;15.072;2023-02-26T00:20:53;16.25;61.69
73780;SHT30;62093;37.614;15.072;2023-02-26T00:23:19;16.25;61.78
73780;SHT30;62093;37.614;15.072;2023-02-26T00:25:46;16.25;61.76
73780;SHT30;62093;37.614;15.072;2023-02-26T00:28:12;16.26;61.78
73780;SHT30;62093;37.614;15.072;2023-02-26T00:30:39;16.23;61.88
73780;SHT30;62093;37.614;15.072;2023-02-26T00:33:05;16.23;61.95
73780;SHT30;62093;37.614;15.072;2023-02-26T00:35:32;16.22;62.03
73780;SHT30;62093;37.614;15.072;2023-02-26T00:40:45;16.21;62.04
73780;SHT30;62093;37.614;15.072;2023-02-26T00:43:23;16.19;62.10
73780;SHT30;62093;37.614;15.072;2023-02-26T00:49:10;16.18;62.13
73780;SHT30;62093;37.614;15.072;2023-02-26T00:51:30;16.18;62.12
73780;SHT30;62093;37.614;15.072;2023-02-26T00:54:12;16.16;62.17
73780;SHT30;62093;37.614;15.072;2023-02-26T00:56:41;16.16;62.17
73780;SHT30;62093;37.614;15.072;2023-02-26T00:59:07;16.15;62.25
73780;SHT30;62093;37.614;15.072;2023-02-26T01:01:34;16.15;62.24
73780;SHT30;62093;37.614;15.072;2023-02-26T01:04:00;16.15;62.28
73780;SHT30;62093;37.614;15.072;2023-02-26T01:06:27;16.13;62.30
73780;SHT30;62093;37.614;15.072;2023-02-26T01:11:49;16.12;62.35
73780;SHT30;62093;37.614;15.072;2023-02-26T01:14:16;16.11;62.31
73780;SHT30;62093;37.614;15.072;2023-02-26T01:17:10;16.11;62.38
73780;SHT30;62093;37.614;15.072;2023-02-26T01:24:40;16.11;62.46
73780;SHT30;62093;37.614;15.072;2023-02-26T01:27:08;16.08;62.46
73780;SHT30;62093;37.614;15.072;2023-02-26T01:29:34;16.08;62.50
73780;SHT30;62093;37.614;15.072;2023-02-26T01:32:04;16.08;62.52
73780;SHT30;62093;37.614;15.072;2023-02-26T01:34:43;16.08;62.51
73780;SHT30;62093;37.614;15.072;2023-02-26T01:42:35;16.04;62.57
73780;SHT30;62093;37.614;15.072;2023-02-26T01:45:15;16.04;62.63
73780;SHT30;62093;37.614;15.072;2023-02-26T01:47:48;16.05;62.64
73780;SHT30;62093;37.614;15.072;2023-02-26T01:50:19;16.05;62.59
73780;SHT30;62093;37.614;15.072;2023-02-26T01:55:22;16.04;62.66
73780;SHT30;62093;37.614;15.072;2023-02-26T01:57:51;16.01;62.68
73780;SHT30;62093;37.614;15.072;2023-02-26T02:00:19;16.02;62.74
73780;SHT30;62093;37.614;15.072;2023-02-26T02:02:45;16.05;62.76
73780;SHT30;62093;37.614;15.072;2023-02-26T02:05:33;16.04;62.80
73780;SHT30;62093;37.614;15.072;2023-02-26T02:08:00;16.02;62.87
73780;SHT30;62093;37.614;15.072;2023-02-26T02:10:27;16.02;62.88
73780;SHT30;62093;37.614;15.072;2023-02-26T02:13:04;16.01;62.93
73780;SHT30;62093;37.614;15.072;2023-02-26T02:15:45;16.00;62.92
73780;SHT30;62093;37.614;15.072;2023-02-26T02:24:24;15.98;63.03
73780;SHT30;62093;37.614;15.072;2023-02-26T02:35:23;15.97;63.05
73780;SHT30;62093;37.614;15.072;2023-02-26T02:40:41;15.95;63.16
73780;SHT30;62093;37.614;15.072;2023-02-26T02:43:16;15.97;63.14
73780;SHT30;62093;37.614;15.072;2023-02-26T02:45:49;15.98;63.15
73780;SHT30;62093;37.614;15.072;2023-02-26T02:48:28;15.94;63.15
73780;SHT30;62093;37.614;15.072;2023-02-26T02:51:02;15.95;63.16
73780;SHT30;62093;37.614;15.072;2023-02-26T02:53:36;15.94;63.16
73780;SHT30;62093;37.614;15.072;2023-02-26T02:58:37;15.95;63.16
73780;SHT30;62093;37.614;15.072;2023-02-26T03:01:10;15.94;63.21
73780;SHT30;62093;37.614;15.072;2023-02-26T03:03:45;15.92;63.16
73780;SHT30;62093;37.614;15.072;2023-02-26T03:06:12;15.94;63.10
73780;SHT30;62093;37.614;15.072;2023-02-26T03:08:40;15.94;63.15
73780;SHT30;62093;37.614;15.072;2023-02-26T03:11:09;15.94;63.20
73780;SHT30;62093;37.614;15.072;2023-02-26T03:13:36;15.91;63.15
73780;SHT30;62093;37.614;15.072;2023-02-26T03:19:27;15.91;63.17
73780;SHT30;62093;37.614;15.072;2023-02-26T03:22:20;15.92;63.11
73780;SHT30;62093;37.614;15.072;2023-02-26T03:27:42;15.90;63.14
73780;SHT30;62093;37.614;15.072;2023-02-26T03:30:25;15.90;63.15
73780;SHT30;62093;37.614;15.072;2023-02-26T03:41:15;15.90;63.06
73780;SHT30;62093;37.614;15.072;2023-02-26T03:43:51;15.91;63.08
73780;SHT30;62093;37.614;15.072;2023-02-26T03:46:28;15.88;63.11
73780;SHT30;62093;37.614;15.072;2023-02-26T03:48:57;15.88;63.08
73780;SHT30;62093;37.614;15.072;2023-02-26T03:51:26;15.88;63.09
73780;SHT30;62093;37.614;15.072;2023-02-26T03:54:12;15.90;63.08
73780;SHT30;62093;37.614;15.072;2023-02-26T03:56:44;15.85;63.07
73780;SHT30;62093;37.614;15.072;2023-02-26T03:59:50;15.88;63.04
73780;SHT30;62093;37.614;15.072;2023-02-26T04:03:08;15.88;63.07
73780;SHT30;62093;37.614;15.072;2023-02-26T04:05:38;15.90;63.07
73780;SHT30;62093;37.614;15.072;2023-02-26T04:08:05;15.91;63.10
73780;SHT30;62093;37.614;15.072;2023-02-26T04:10:44;15.85;63.07
73780;SHT30;62093;37.614;15.072;2023-02-26T04:13:12;15.85;63.07
73780;SHT30;62093;37.614;15.072;2023-02-26T04:15:38;15.87;63.13
73780;SHT30;62093;37.614;15.072;2023-02-26T04:18:04;15.87;63.06
73780;SHT30;62093;37.614;15.072;2023-02-26T04:20:30;15.85;63.05
73780;SHT30;62093;37.614;15.072;2023-02-26T04:22:56;15.85;63.08
73780;SHT30;62093;37.614;15.072;2023-02-26T04:25:22;15.88;63.09
73780;SHT30;62093;37.614;15.072;2023-02-26T04:27:50;15.87;63.11
73780;SHT30;62093;37.614;15.072;2023-02-26T04:30:16;15.84;63.09
73780;SHT30;62093;37.614;15.072;2023-02-26T04:32:42;15.87;63.11
73780;SHT30;62093;37.614;15.072;2023-02-26T04:35:10;15.84;63.11
73780;SHT30;62093;37.614;15.072;2023-02-26T04:37:37;15.84;63.09
73780;SHT30;62093;37.614;15.072;2023-02-26T04:40:04;15.82;63.11
73780;SHT30;62093;37.614;15.072;2023-02-26T04:42:31;15.82;63.13
73780;SHT30;62093;37.614;15.072;2023-02-26T04:44:57;15.81;63.11
73780;SHT30;62093;37.614;15.072;2023-02-26T04:47:24;15.82;63.14
73780;SHT30;62093;37.614;15.072;2023-02-26T04:49:50;15.81;63.13
73780;SHT30;62093;37.614;15.072;2023-02-26T04:52:16;15.81;63.16
73780;SHT30;62093;37.614;15.072;2023-02-26T04:54:42;15.78;63.15
73780;SHT30;62093;37.614;15.072;2023-02-26T04:57:10;15.80;63.19
73780;SHT30;62093;37.614;15.072;2023-02-26T04:59:36;15.78;63.19
73780;SHT30;62093;37.614;15.072;2023-02-26T05:02:04;15.78;63.20
73780;SHT30;62093;37.614;15.072;2023-02-26T05:04:31;15.75;63.15
73780;SHT30;62093;37.614;15.072;2023-02-26T05:06:58;15.80;63.17
73780;SHT30;62093;37.614;15.072;2023-02-26T05:09:25;15.78;63.18
73780;SHT30;62093;37.614;15.072;2023-02-26T05:11:51;15.74;63.15
73780;SHT30;62093;37.614;15.072;2023-02-26T05:14:17;15.78;63.20
73780;SHT30;62093;37.614;15.072;2023-02-26T05:16:48;15.78;63.19
73780;SHT30;62093;37.614;15.072;2023-02-26T05:19:14;15.77;63.20
73780;SHT30;62093;37.614;15.072;2023-02-26T05:21:40;15.77;63.13
73780;SHT30;62093;37.614;15.072;2023-02-26T05:24:06;15.77;63.12
73780;SHT30;62093;37.614;15.072;2023-02-26T05:26:32;15.75;63.14
73780;SHT30;62093;37.614;15.072;2023-02-26T05:28:58;15.75;63.16
73780;SHT30;62093;37.614;15.072;2023-02-26T05:31:24;15.77;63.21
73780;SHT30;62093;37.614;15.072;2023-02-26T05:33:51;15.78;63.15
73780;SHT30;62093;37.614;15.072;2023-02-26T05:36:17;15.80;63.21
73780;SHT30;62093;37.614;15.072;2023-02-26T05:38:43;15.74;63.20
73780;SHT30;62093;37.614;15.072;2023-02-26T05:41:09;15.72;63.22
73780;SHT30;62093;37.614;15.072;2023-02-26T05:43:36;15.78;63.23
73780;SHT30;62093;37.614;15.072;2023-02-26T05:46:01;15.77;63.21
73780;SHT30;62093;37.614;15.072;2023-02-26T05:48:27;15.75;63.22
73780;SHT30;62093;37.614;15.072;2023-02-26T05:50:53;15.75;63.17
73780;SHT30;62093;37.614;15.072;2023-02-26T05:53:19;15.77;63.16
73780;SHT30;62093;37.614;15.072;2023-02-26T05:55:45;15.75;63.17
73780;SHT30;62093;37.614;15.072;2023-02-26T05:58:11;15.78;63.20
73780;SHT30;62093;37.614;15.072;2023-02-26T06:00:37;15.77;63.24
73780;SHT30;62093;37.614;15.072;2023-02-26T06:03:03;15.77;63.24
73780;SHT30;62093;37.614;15.072;2023-02-26T06:05:29;15.77;63.27
73780;SHT30;62093;37.614;15.072;2023-02-26T06:07:55;15.78;63.32
73780;SHT30;62093;37.614;15.072;2023-02-26T06:10:21;15.78;63.37
73780;SHT30;62093;37.614;15.072;2023-02-26T06:12:47;15.78;63.40
73780;SHT30;62093;37.614;15.072;2023-02-26T06:15:12;15.81;63.45
73780;SHT30;62093;37.614;15.072;2023-02-26T06:17:39;15.81;63.43
73780;SHT30;62093;37.614;15.072;2023-02-26T06:20:05;15.81;63.48
73780;SHT30;62093;37.614;15.072;2023-02-26T06:22:31;15.84;63.50
73780;SHT30;62093;37.614;15.072;2023-02-26T06:24:57;15.80;63.52
73780;SHT30;62093;37.614;15.072;2023-02-26T06:27:24;15.81;63.54
73780;SHT30;62093;37.614;15.072;2023-02-26T06:29:50;15.81;63.54
73780;SHT30;62093;37.614;15.072;2023-02-26T06:32:16;15.82;63.59
73780;SHT30;62093;37.614;15.072;2023-02-26T06:34:42;15.82;63.61
73780;SHT30;62093;37.614;15.072;2023-02-26T06:37:08;15.82;63.60
73780;SHT30;62093;37.614;15.072;2023-02-26T06:39:34;15.84;63.59
73780;SHT30;62093;37.614;15.072;2023-02-26T06:42:00;15.82;63.56
73780;SHT30;62093;37.614;15.072;2023-02-26T06:44:26;15.87;63.49
73780;SHT30;62093;37.614;15.072;2023-02-26T06:46:52;15.82;63.51
73780;SHT30;62093;37.614;15.072;2023-02-26T06:49:17;15.84;63.55
73780;SHT30;62093;37.614;15.072;2023-02-26T06:51:43;15.82;63.54
73780;SHT30;62093;37.614;15.072;2023-02-26T06:54:09;15.85;63.59
73780;SHT30;62093;37.614;15.072;2023-02-26T06:56:35;15.82;63.61
73780;SHT30;62093;37.614;15.072;2023-02-26T06:59:01;15.84;63.54
73780;SHT30;62093;37.614;15.072;2023-02-26T07:01:27;15.82;63.66
73780;SHT30;62093;37.614;15.072;2023-02-26T07:03:53;15.82;63.60
73780;SHT30;62093;37.614;15.072;2023-02-26T07:06:19;15.82;63.67
73780;SHT30;62093;37.614;15.072;2023-02-26T07:08:44;15.84;63.69
73780;SHT30;62093;37.614;15.072;2023-02-26T07:11:10;15.85;63.63
73780;SHT30;62093;37.614;15.072;2023-02-26T07:13:36;15.85;63.63
73780;SHT30;62093;37.614;15.072;2023-02-26T07:16:04;15.84;63.60
73780;SHT30;62093;37.614;15.072;2023-02-26T07:18:36;15.85;63.58
73780;SHT30;62093;37.614;15.072;2023-02-26T07:21:03;15.84;63.58
73780;SHT30;62093;37.614;15.072;2023-02-26T07:23:29;15.82;63.62
73780;SHT30;62093;37.614;15.072;2023-02-26T07:25:56;15.82;63.60
73780;SHT30;62093;37.614;15.072;2023-02-26T07:28:24;15.81;63.60
73780;SHT30;62093;37.614;15.072;2023-02-26T07:30:53;15.81;63.60
73780;SHT30;62093;37.614;15.072;2023-02-26T07:33:19;15.84;63.55
73780;SHT30;62093;37.614;15.072;2023-02-26T07:35:46;15.85;63.58
73780;SHT30;62093;37.614;15.072;2023-02-26T07:38:12;15.85;63.59
73780;SHT30;62093;37.614;15.072;2023-02-26T07:40:38;15.87;63.56
73780;SHT30;62093;37.614;15.072;2023-02-26T07:43:04;15.85;63.57
73780;SHT30;62093;37.614;15.072;2023-02-26T07:45:29;15.84;63.50
73780;SHT30;62093;37.614;15.072;2023-02-26T07:47:55;15.85;63.49
73780;SHT30;62093;37.614;15.072;2023-02-26T07:50:21;15.88;63.49
73780;SHT30;62093;37.614;15.072;2023-02-26T07:52:52;15.85;63.48
73780;SHT30;62093;37.614;15.072;2023-02-26T07:55:19;15.90;63.46
73780;SHT30;62093;37.614;15.072;2023-02-26T07:57:45;15.90;63.45
73780;SHT30;62093;37.614;15.072;2023-02-26T08:00:12;15.91;63.42
73780;SHT30;62093;37.614;15.072;2023-02-26T08:02:39;15.91;63.44
73780;SHT30;62093;37.614;15.072;2023-02-26T08:05:05;15.94;63.39
73780;SHT30;62093;37.614;15.072;2023-02-26T08:07:31;15.92;63.43
73780;SHT30;62093;37.614;15.072;2023-02-26T08:09:57;15.90;63.42
73780;SHT30;62093;37.614;15.072;2023-02-26T08:12:23;15.91;63.38
73780;SHT30;62093;37.614;15.072;2023-02-26T08:14:49;15.92;63.36
73780;SHT30;62093;37.614;15.072;2023-02-26T08:17:15;15.95;63.37
73780;SHT30;62093;37.614;15.072;2023-02-26T08:19:41;15.95;63.34
73780;SHT30;62093;37.614;15.072;2023-02-26T08:22:06;15.95;63.31
73780;SHT30;62093;37.614;15.072;2023-02-26T08:24:32;15.97;63.32
73780;SHT30;62093;37.614;15.072;2023-02-26T08:26:58;15.95;63.27
73780;SHT30;62093;37.614;15.072;2023-02-26T08:29:24;15.97;63.27
73780;SHT30;62093;37.614;15.072;2023-02-26T08:31:51;15.97;63.25
73780;SHT30;62093;37.614;15.072;2023-02-26T08:34:17;16.00;63.25
73780;SHT30;62093;37.614;15.072;2023-02-26T08:36:43;15.98;63.28
73780;SHT30;62093;37.614;15.072;2023-02-26T08:39:09;15.98;63.26
73780;SHT30;62093;37.614;15.072;2023-02-26T08:41:35;16.00;63.25
73780;SHT30;62093;37.614;15.072;2023-02-26T08:44:02;16.02;63.20
73780;SHT30;62093;37.614;15.072;2023-02-26T08:46:29;16.02;63.20
73780;SHT30;62093;37.614;15.072;2023-02-26T08:48:55;16.01;63.21
73780;SHT30;62093;37.614;15.072;2023-02-26T08:51:21;16.05;63.16
73780;SHT30;62093;37.614;15.072;2023-02-26T08:53:48;16.04;63.12
73780;SHT30;62093;37.614;15.072;2023-02-26T08:56:15;16.06;63.09
73780;SHT30;62093;37.614;15.072;2023-02-26T08:58:42;16.04;63.19
73780;SHT30;62093;37.614;15.072;2023-02-26T09:01:08;16.06;63.12
73780;SHT30;62093;37.614;15.072;2023-02-26T09:03:34;16.06;63.04
73780;SHT30;62093;37.614;15.072;2023-02-26T09:06:00;16.06;63.08
73780;SHT30;62093;37.614;15.072;2023-02-26T09:08:26;16.08;63.04
73780;SHT30;62093;37.614;15.072;2023-02-26T09:10:52;16.08;63.10
73780;SHT30;62093;37.614;15.072;2023-02-26T09:13:18;16.09;62.99
73780;SHT30;62093;37.614;15.072;2023-02-26T09:15:44;16.08;62.99
73780;SHT30;62093;37.614;15.072;2023-02-26T09:18:10;16.06;63.09
73780;SHT30;62093;37.614;15.072;2023-02-26T09:20:41;16.09;63.09
73780;SHT30;62093;37.614;15.072;2023-02-26T09:23:08;16.09;63.00
73780;SHT30;62093;37.614;15.072;2023-02-26T09:25:34;16.08;63.05
73780;SHT30;62093;37.614;15.072;2023-02-26T09:27:59;16.11;63.03
73780;SHT30;62093;37.614;15.072;2023-02-26T09:30:25;16.09;63.04
73780;SHT30;62093;37.614;15.072;2023-02-26T09:32:52;16.12;63.10
73780;SHT30;62093;37.614;15.072;2023-02-26T09:35:18;16.11;63.19
73780;SHT30;62093;37.614;15.072;2023-02-26T09:37:44;16.13;63.09
73780;SHT30;62093;37.614;15.072;2023-02-26T09:40:35;16.13;63.08
73780;SHT30;62093;37.614;15.072;2023-02-26T09:46:04;16.13;63.03
73780;SHT30;62093;37.614;15.072;2023-02-26T09:48:32;16.15;62.99
73780;SHT30;62093;37.614;15.072;2023-02-26T09:50:59;16.13;63.00
73780;SHT30;62093;37.614;15.072;2023-02-26T09:53:28;16.13;63.03
73780;SHT30;62093;37.614;15.072;2023-02-26T09:56:13;16.19;62.92
73780;SHT30;62093;37.614;15.072;2023-02-26T09:58:42;16.16;62.92
73780;SHT30;62093;37.614;15.072;2023-02-26T10:01:22;16.18;62.82
73780;SHT30;62093;37.614;15.072;2023-02-26T10:07:02;16.19;62.64
73780;SHT30;62093;37.614;15.072;2023-02-26T10:12:29;16.21;62.50
73780;SHT30;62093;37.614;15.072;2023-02-26T10:17:52;16.21;62.54
73780;SHT30;62093;37.614;15.072;2023-02-26T10:20:30;16.23;62.41
73780;SHT30;62093;37.614;15.072;2023-02-26T10:25:48;16.19;62.28
73780;SHT30;62093;37.614;15.072;2023-02-26T10:28:27;16.22;62.52
73780;SHT30;62093;37.614;15.072;2023-02-26T10:31:11;16.23;62.35
73780;SHT30;62093;37.614;15.072;2023-02-26T10:34:04;16.26;62.46
73780;SHT30;62093;37.614;15.072;2023-02-26T10:39:31;16.23;62.37
73780;SHT30;62093;37.614;15.072;2023-02-26T10:42:02;16.23;62.21
73780;SHT30;62093;37.614;15.072;2023-02-26T10:44:49;16.25;62.01
73780;SHT30;62093;37.614;15.072;2023-02-26T10:50:09;16.25;62.11
73780;SHT30;62093;37.614;15.072;2023-02-26T10:52:36;16.25;61.83
73780;SHT30;62093;37.614;15.072;2023-02-26T10:57:30;16.28;62.16
73780;SHT30;62093;37.614;15.072;2023-02-26T11:00:00;16.23;61.59
73780;SHT30;62093;37.614;15.072;2023-02-26T11:02:39;16.28;61.83
73780;SHT30;62093;37.614;15.072;2023-02-26T11:05:15;16.28;61.88
73780;SHT30;62093;37.614;15.072;2023-02-26T11:07:42;16.28;61.91
73780;SHT30;62093;37.614;15.072;2023-02-26T11:10:24;16.29;61.68
73780;SHT30;62093;37.614;15.072;2023-02-26T11:12:51;16.29;61.36
73780;SHT30;62093;37.614;15.072;2023-02-26T11:15:20;16.30;61.75
73780;SHT30;62093;37.614;15.072;2023-02-26T11:17:52;16.30;61.34
73780;SHT30;62093;37.614;15.072;2023-02-26T11:20:29;16.32;61.36
73780;SHT30;62093;37.614;15.072;2023-02-26T11:22:57;16.30;61.43
73780;SHT30;62093;37.614;15.072;2023-02-26T11:25:28;16.32;61.26
73780;SHT30;62093;37.614;15.072;2023-02-26T11:28:02;16.32;60.94
73780;SHT30;62093;37.614;15.072;2023-02-26T11:30:32;16.30;61.03
73780;SHT30;62093;37.614;15.072;2023-02-26T11:33:15;16.30;60.76
73780;SHT30;62093;37.614;15.072;2023-02-26T11:35:42;16.32;60.98
73780;SHT30;62093;37.614;15.072;2023-02-26T11:38:21;16.33;60.85
73780;SHT30;62093;37.614;15.072;2023-02-26T11:40:53;16.32;61.29
73780;SHT30;62093;37.614;15.072;2023-02-26T11:43:21;16.35;60.48
73780;SHT30;62093;37.614;15.072;2023-02-26T11:45:52;16.33;60.44
73780;SHT30;62093;37.614;15.072;2023-02-26T11:48:22;16.33;60.60
73780;SHT30;62093;37.614;15.072;2023-02-26T11:50:54;16.35;60.55
73780;SHT30;62093;37.614;15.072;2023-02-26T11:53:34;16.32;60.49
73780;SHT30;62093;37.614;15.072;2023-02-26T11:56:12;16.33;60.40
73780;SHT30;62093;37.614;15.072;2023-02-26T11:58:40;16.33;60.87
73780;SHT30;62093;37.614;15.072;2023-02-26T12:01:11;16.32;60.69
73780;SHT30;62093;37.614;15.072;2023-02-26T12:03:39;16.33;60.36
73780;SHT30;62093;37.614;15.072;2023-02-26T12:06:16;16.33;60.32
73780;SHT30;62093;37.614;15.072;2023-02-26T12:08:42;16.33;60.46
73780;SHT30;62093;37.614;15.072;2023-02-26T12:14:34;16.33;60.62
73780;SHT30;62093;37.614;15.072;2023-02-26T12:42:46;16.28;58.56
73780;SHT30;62093;37.614;15.072;2023-02-26T12:45:34;16.29;59.42
73780;SHT30;62093;37.614;15.072;2023-02-26T13:02:03;16.29;58.34
73780;SHT30;62093;37.614;15.072;2023-02-26T13:04:35;16.29;58.45
73780;SHT30;62093;37.614;15.072;2023-02-26T13:10:14;16.28;57.93
73780;SHT30;62093;37.614;15.072;2023-02-26T13:19:00;16.30;58.55
73780;SHT30;62093;37.614;15.072;2023-02-26T13:21:34;16.30;57.85
73780;SHT30;62093;37.614;15.072;2023-02-26T13:24:06;16.33;58.38
73780;SHT30;62093;37.614;15.072;2023-02-26T13:26:33;16.33;58.00
73780;SHT30;62093;37.614;15.072;2023-02-26T13:29:14;16.32;57.93
73780;SHT30;62093;37.614;15.072;2023-02-26T13:37:27;16.32;58.18
73780;SHT30;62093;37.614;15.072;2023-02-26T13:49:12;16.35;58.52
73780;SHT30;62093;37.614;15.072;2023-02-26T13:51:43;16.36;58.49
73780;SHT30;62093;37.614;15.072;2023-02-26T13:57:07;16.35;58.87
73780;SHT30;62093;37.614;15.072;2023-02-26T13:59:45;16.36;58.27
73780;SHT30;62093;37.614;15.072;2023-02-26T14:04:57;16.38;58.34
73780;SHT30;62093;37.614;15.072;2023-02-26T14:10:22;16.36;58.47
73780;SHT30;62093;37.614;15.072;2023-02-26T14:16:09;16.39;59.53
73780;SHT30;62093;37.614;15.072;2023-02-26T14:24:31;16.43;59.73
73780;SHT30;62093;37.614;15.072;2023-02-26T14:32:14;16.39;60.22
73780;SHT30;62093;37.614;15.072;2023-02-26T14:34:51;16.45;60.37
73780;SHT30;62093;37.614;15.072;2023-02-26T14:37:23;16.42;60.31
73780;SHT30;62093;37.614;15.072;2023-02-26T14:40:01;16.41;59.95
73780;SHT30;62093;37.614;15.072;2023-02-26T14:47:36;16.46;60.48
73780;SHT30;62093;37.614;15.072;2023-02-26T14:50:05;16.46;60.44
73780;SHT30;62093;37.614;15.072;2023-02-26T14:55:22;16.46;60.09
73780;SHT30;62093;37.614;15.072;2023-02-26T14:58:20;16.46;59.87
73780;SHT30;62093;37.614;15.072;2023-02-26T15:17:09;16.48;60.08
73780;SHT30;62093;37.614;15.072;2023-02-26T15:19:34;16.45;60.18
73780;SHT30;62093;37.614;15.072;2023-02-26T15:24:47;16.51;60.68
73780;SHT30;62093;37.614;15.072;2023-02-26T15:27:16;16.51;60.72
73780;SHT30;62093;37.614;15.072;2023-02-26T15:29:45;16.46;60.29
73780;SHT30;62093;37.614;15.072;2023-02-26T15:32:26;16.48;60.33
73780;SHT30;62093;37.614;15.072;2023-02-26T15:35:03;16.46;60.01
73780;SHT30;62093;37.614;15.072;2023-02-26T15:37:32;16.46;60.15
73780;SHT30;62093;37.614;15.072;2023-02-26T15:40:02;16.48;59.95
73780;SHT30;62093;37.614;15.072;2023-02-26T15:42:32;16.49;59.90
73780;SHT30;62093;37.614;15.072;2023-02-26T15:45:02;16.46;60.09
73780;SHT30;62093;37.614;15.072;2023-02-26T15:47:29;16.48;60.11
73780;SHT30;62093;37.614;15.072;2023-02-26T15:49:56;16.48;60.25
73780;SHT30;62093;37.614;15.072;2023-02-26T15:52:25;16.46;59.97
73780;SHT30;62093;37.614;15.072;2023-02-26T15:54:58;16.49;60.34
73780;SHT30;62093;37.614;15.072;2023-02-26T15:57:26;16.45;60.33
73780;SHT30;62093;37.614;15.072;2023-02-26T15:59:59;16.46;60.49
73780;SHT30;62093;37.614;15.072;2023-02-26T16:02:30;16.45;60.33
73780;SHT30;62093;37.614;15.072;2023-02-26T16:04:57;16.45;60.32
73780;SHT30;62093;37.614;15.072;2023-02-26T16:07:23;16.48;60.41
73780;SHT30;62093;37.614;15.072;2023-02-26T16:09:51;16.46;60.41
73780;SHT30;62093;37.614;15.072;2023-02-26T16:12:22;16.45;60.11
73780;SHT30;62093;37.614;15.072;2023-02-26T16:14:58;16.45;60.17
73780;SHT30;62093;37.614;15.072;2023-02-26T16:17:29;16.46;60.17
73780;SHT30;62093;37.614;15.072;2023-02-26T16:19:58;16.43;60.28
73780;SHT30;62093;37.614;15.072;2023-02-26T16:22:32;16.43;60.20
73780;SHT30;62093;37.614;15.072;2023-02-26T16:25:19;16.45;60.02
73780;SHT30;62093;37.614;15.072;2023-02-26T16:27:57;16.43;60.16
73780;SHT30;62093;37.614;15.072;2023-02-26T16:30:32;16.42;59.97
73780;SHT30;62093;37.614;15.072;2023-02-26T16:33:00;16.41;59.86
73780;SHT30;62093;37.614;15.072;2023-02-26T16:35:31;16.41;60.40
73780;SHT30;62093;37.614;15.072;2023-02-26T16:38:09;16.42;60.36
73780;SHT30;62093;37.614;15.072;2023-02-26T16:40:40;16.36;60.83
73780;SHT30;62093;37.614;15.072;2023-02-26T16:43:31;16.41;60.39
73780;SHT30;62093;37.614;15.072;2023-02-26T16:46:00;16.39;60.66
73780;SHT30;62093;37.614;15.072;2023-02-26T16:48:31;16.38;60.87
73780;SHT30;62093;37.614;15.072;2023-02-26T16:51:02;16.38;60.56
73780;SHT30;62093;37.614;15.072;2023-02-26T16:53:41;16.38;60.52
73780;SHT30;62093;37.614;15.072;2023-02-26T16:56:16;16.39;60.85
73780;SHT30;62093;37.614;15.072;2023-02-26T16:58:48;16.39;60.92
73780;SHT30;62093;37.614;15.072;2023-02-26T17:01:17;16.36;60.69
73780;SHT30;62093;37.614;15.072;2023-02-26T17:03:46;16.36;60.94
73780;SHT30;62093;37.614;15.072;2023-02-26T17:06:16;16.36;61.14
73780;SHT30;62093;37.614;15.072;2023-02-26T17:08:53;16.32;61.11
73780;SHT30;62093;37.614;15.072;2023-02-26T17:16:48;16.32;61.38
73780;SHT30;62093;37.614;15.072;2023-02-26T17:19:14;16.30;61.00
73780;SHT30;62093;37.614;15.072;2023-02-26T17:21:46;16.32;61.38
73780;SHT30;62093;37.614;15.072;2023-02-26T17:24:23;16.28;61.23
73780;SHT30;62093;37.614;15.072;2023-02-26T17:26:51;16.26;61.14
73780;SHT30;62093;37.614;15.072;2023-02-26T17:29:21;16.28;61.45
73780;SHT30;62093;37.614;15.072;2023-02-26T17:31:49;16.26;61.27
73780;SHT30;62093;37.614;15.072;2023-02-26T17:34:17;16.26;61.39
73780;SHT30;62093;37.614;15.072;2023-02-26T17:36:43;16.26;61.51
73780;SHT30;62093;37.614;15.072;2023-02-26T17:39:11;16.25;61.25
73780;SHT30;62093;37.614;15.072;2023-02-26T17:41:40;16.25;61.48
73780;SHT30;62093;37.614;15.072;2023-02-26T17:44:07;16.23;61.61
73780;SHT30;62093;37.614;15.072;2023-02-26T17:46:33;16.23;61.60
73780;SHT30;62093;37.614;15.072;2023-02-26T17:48:59;16.22;61.49
73780;SHT30;62093;37.614;15.072;2023-02-26T17:51:25;16.22;61.58
73780;SHT30;62093;37.614;15.072;2023-02-26T17:53:52;16.19;61.46
73780;SHT30;62093;37.614;15.072;2023-02-26T17:58:49;16.18;61.59
73780;SHT30;62093;37.614;15.072;2023-02-26T18:01:16;16.18;61.75
73780;SHT30;62093;37.614;15.072;2023-02-26T18:03:42;16.19;61.67
73780;SHT30;62093;37.614;15.072;2023-02-26T18:06:12;16.19;61.82
73780;SHT30;62093;37.614;15.072;2023-02-26T18:08:38;16.16;61.92
73780;SHT30;62093;37.614;15.072;2023-02-26T18:11:06;16.18;62.03
73780;SHT30;62093;37.614;15.072;2023-02-26T18:13:32;16.15;61.79
73780;SHT30;62093;37.614;15.072;2023-02-26T18:15:58;16.15;61.76
73780;SHT30;62093;37.614;15.072;2023-02-26T18:18:27;16.13;61.95
73780;SHT30;62093;37.614;15.072;2023-02-26T18:20:53;16.16;62.22
73780;SHT30;62093;37.614;15.072;2023-02-26T18:23:19;16.15;61.84
73780;SHT30;62093;37.614;15.072;2023-02-26T18:25:47;16.13;61.78
73780;SHT30;62093;37.614;15.072;2023-02-26T18:28:23;16.13;61.90
73780;SHT30;62093;37.614;15.072;2023-02-26T18:30:50;16.12;61.83
73780;SHT30;62093;37.614;15.072;2023-02-26T18:33:17;16.12;61.90
73780;SHT30;62093;37.614;15.072;2023-02-26T18:35:45;16.11;61.75
73780;SHT30;62093;37.614;15.072;2023-02-26T18:38:17;16.09;61.88
73780;SHT30;62093;37.614;15.072;2023-02-26T18:40:44;16.09;62.07
73780;SHT30;62093;37.614;15.072;2023-02-26T18:43:11;16.05;62.05
73780;SHT30;62093;37.614;15.072;2023-02-26T18:45:42;16.08;61.97
73780;SHT30;62093;37.614;15.072;2023-02-26T18:48:11;16.08;61.23
73780;SHT30;62093;37.614;15.072;2023-02-26T18:50:37;16.04;62.17
73780;SHT30;62093;37.614;15.072;2023-02-26T18:53:03;16.04;62.03
73780;SHT30;62093;37.614;15.072;2023-02-26T18:55:29;16.04;62.04